Max Supporter — 9HA4064 — position and weather

sailwx.info

Track history (hours):
 
Tides and Currents Weather Stations Pressure Air Temp Water Temp Dewpoint Dewpoint Depression Visibility Wind Speed Wind Dir Waves Ship Positions

Max Supporter

Last reported at 2017-Oct-22 15:20 UTC. Time now 2017-Oct-23 05:59 UTC.
Position N 36°05' W 005°19'.

Length 639 m; draft 5.3 m.

Type: Cargo ship. MMSI: 249036000.

Date/timePositionNaut miles runAvg speedWind from/ knotsBaromVisibWave heightAir tempDewpointWater temp
2017-Oct-22 15:20N 36°05' W 005°19'3 0.2
2017-Oct-21 20:52N 36°05' W 005°16'1 2.4
2017-Oct-21 20:30N 36°05' W 005°17'2 3.1
2017-Oct-21 20:00N 36°04' W 005°19'  
2017-Oct-16 20:24N 38°24' E 008°23'1 1.0
2017-Oct-16 18:57N 38°23' E 008°25'3 1.0
2017-Oct-16 15:55N 38°21' E 008°28'47 3.2
2017-Oct-16 01:13N 38°37' E 009°24'18 0.5
2017-Oct-14 14:16N 38°55' E 009°20'311.1
2017-Oct-14 14:00N 38°57' E 009°17'611.2
2017-Oct-14 13:30N 39°01' E 009°13'611.5
2017-Oct-14 13:00N 39°06' E 009°08'610.7
2017-Oct-14 12:29N 39°11' E 009°06'2 4.3
2017-Oct-14 11:55N 39°13' E 009°04'0 0.0
2017-Oct-14 11:28N 39°13' E 009°04'0 0.0
2017-Oct-14 11:00N 39°13' E 009°04'0 0.0
2017-Oct-14 10:30N 39°13' E 009°04'0 0.0
2017-Oct-14 10:00N 39°13' E 009°04'0 0.0
2017-Oct-14 09:30N 39°13' E 009°04'0 0.0
2017-Oct-14 09:00N 39°13' E 009°04'0 0.0
2017-Oct-14 08:29N 39°13' E 009°04'0 0.0
2017-Oct-14 07:59N 39°13' E 009°04'0 0.0
2017-Oct-14 07:29N 39°13' E 009°04'0 0.0
2017-Oct-14 06:56N 39°13' E 009°04'0 0.0
2017-Oct-14 06:28N 39°13' E 009°04'0 0.0
2017-Oct-14 05:58N 39°13' E 009°04'0 0.0
2017-Oct-14 05:22N 39°13' E 009°04'0 0.0
2017-Oct-14 04:58N 39°13' E 009°04'0 0.0
2017-Oct-14 04:22N 39°13' E 009°04'0 0.0
2017-Oct-14 04:00N 39°13' E 009°04'0 0.0
2017-Oct-14 03:30N 39°13' E 009°04'0 0.0
2017-Oct-14 02:58N 39°13' E 009°04'1 1.7
2017-Oct-14 02:30N 39°12' E 009°05'3 5.6
2017-Oct-14 02:00N 39°10' E 009°06'3 6.1
2017-Oct-14 01:30N 39°07' E 009°07'510.7
2017-Oct-14 01:00N 39°02' E 009°11'611.4
2017-Oct-14 00:30N 38°58' E 009°15'  
Track history (hours):
 
Tides and Currents Weather Stations Pressure Air Temp Water Temp Dewpoint Dewpoint Depression Visibility Wind Speed Wind Dir Waves Ship Positions

Max Supporter

Last reported at 2017-Oct-22 15:20 UTC. Time now 2017-Oct-23 05:59 UTC.
Position N 36°05' W 005°19'.

Length 639 m; draft 5.3 m.

Type: Cargo ship. MMSI: 249036000.

Date/timePositionNaut miles runAvg speedWind from/ knotsBaromVisibWave heightAir tempDewpointWater temp
2017-Oct-22 15:20N 36°05' W 005°19'3 0.2
2017-Oct-21 20:52N 36°05' W 005°16'1 2.4
2017-Oct-21 20:30N 36°05' W 005°17'2 3.1
2017-Oct-21 20:00N 36°04' W 005°19'  
2017-Oct-16 20:24N 38°24' E 008°23'1 1.0
2017-Oct-16 18:57N 38°23' E 008°25'3 1.0
2017-Oct-16 15:55N 38°21' E 008°28'47 3.2
2017-Oct-16 01:13N 38°37' E 009°24'18 0.5
2017-Oct-14 14:16N 38°55' E 009°20'311.1
2017-Oct-14 14:00N 38°57' E 009°17'611.2
2017-Oct-14 13:30N 39°01' E 009°13'611.5
2017-Oct-14 13:00N 39°06' E 009°08'610.7
2017-Oct-14 12:29N 39°11' E 009°06'2 4.3
2017-Oct-14 11:55N 39°13' E 009°04'0 0.0
2017-Oct-14 11:28N 39°13' E 009°04'0 0.0
2017-Oct-14 11:00N 39°13' E 009°04'0 0.0
2017-Oct-14 10:30N 39°13' E 009°04'0 0.0
2017-Oct-14 10:00N 39°13' E 009°04'0 0.0
2017-Oct-14 09:30N 39°13' E 009°04'0 0.0
2017-Oct-14 09:00N 39°13' E 009°04'0 0.0
2017-Oct-14 08:29N 39°13' E 009°04'0 0.0
2017-Oct-14 07:59N 39°13' E 009°04'0 0.0
2017-Oct-14 07:29N 39°13' E 009°04'0 0.0
2017-Oct-14 06:56N 39°13' E 009°04'0 0.0
2017-Oct-14 06:28N 39°13' E 009°04'0 0.0
2017-Oct-14 05:58N 39°13' E 009°04'0 0.0
2017-Oct-14 05:22N 39°13' E 009°04'0 0.0
2017-Oct-14 04:58N 39°13' E 009°04'0 0.0
2017-Oct-14 04:22N 39°13' E 009°04'0 0.0
2017-Oct-14 04:00N 39°13' E 009°04'0 0.0
2017-Oct-14 03:30N 39°13' E 009°04'0 0.0
2017-Oct-14 02:58N 39°13' E 009°04'1 1.7
2017-Oct-14 02:30N 39°12' E 009°05'3 5.6
2017-Oct-14 02:00N 39°10' E 009°06'3 6.1
2017-Oct-14 01:30N 39°07' E 009°07'510.7
2017-Oct-14 01:00N 39°02' E 009°11'611.4
2017-Oct-14 00:30N 38°58' E 009°15'  

Dump ship's entire track history